createdAt,value
2019-02-11T01:27:22.505Z,6.39
2019-02-11T01:30:04.964Z,6.28
2019-02-11T13:23:12.364Z,10.79
2019-02-11T13:29:26.506Z,10.60
2019-02-11T13:32:14.212Z,10.67
2019-02-11T13:34:54.961Z,10.25
2019-02-11T13:37:46.498Z,10.43
2019-02-11T13:40:40.882Z,10.62
2019-02-11T13:43:52.949Z,10.57
2019-02-11T13:46:31.878Z,10.53
2019-02-11T13:52:09.374Z,10.63
2019-02-11T13:57:51.893Z,10.34
2019-02-11T14:03:11.253Z,9.63
2019-02-11T14:07:02.801Z,9.64
2019-02-11T14:08:40.585Z,9.73
2019-02-11T14:11:30.527Z,9.90
2019-02-11T14:14:03.579Z,10.28
2019-02-11T14:17:04.659Z,10.63
2019-02-11T14:19:54.101Z,10.39
2019-02-11T14:31:24.642Z,9.82
2019-02-11T14:33:53.555Z,9.93
2019-02-11T14:36:22.359Z,9.98
2019-02-11T14:38:51.020Z,10.01
2019-02-11T14:41:24.603Z,10.17
2019-02-11T14:43:55.741Z,10.17
2019-02-11T14:49:53.519Z,10.16
2019-02-11T14:58:56.867Z,9.74
2019-02-11T15:01:58.747Z,9.69
2019-02-11T15:07:51.944Z,9.76
2019-02-11T15:10:27.346Z,9.69
2019-02-11T15:13:15.267Z,9.71
2019-02-11T15:15:52.682Z,9.51
2019-02-11T15:22:32.238Z,9.44
2019-02-11T15:28:33.664Z,9.64
2019-02-11T15:31:41.659Z,9.66
2019-02-11T15:34:34.984Z,9.56
2019-02-11T15:44:05.928Z,9.32
2019-02-11T16:04:44.960Z,9.62
2019-02-11T16:08:22.356Z,9.48
2019-02-11T16:10:43.326Z,9.58
2019-02-11T16:13:31.352Z,9.56
2019-02-11T16:22:37.175Z,9.54
2019-02-11T16:25:09.854Z,9.42
2019-02-11T16:27:42.418Z,9.49
2019-02-11T16:30:14.471Z,9.57
2019-02-11T16:32:45.076Z,9.56
2019-02-11T16:35:16.997Z,9.53
2019-02-11T16:37:49.957Z,9.45
2019-02-11T16:40:25.647Z,9.41
2019-02-11T16:43:05.930Z,9.45
2019-02-11T16:46:10.929Z,9.43
2019-02-11T16:49:00.617Z,9.51
2019-02-11T16:51:36.903Z,9.37
2019-02-11T16:54:28.382Z,9.37
2019-02-11T16:57:09.770Z,9.42
2019-02-11T16:59:43.800Z,9.40
2019-02-11T17:02:20.582Z,9.38
2019-02-11T17:05:08.322Z,9.48
2019-02-11T17:07:54.447Z,9.48
2019-02-11T17:10:30.308Z,9.54
2019-02-11T17:13:00.893Z,9.60
2019-02-11T17:16:05.175Z,9.59
2019-02-11T17:18:34.768Z,9.63
2019-02-11T17:21:05.738Z,9.59
2019-02-11T17:23:35.247Z,9.58
2019-02-11T17:26:15.065Z,9.53
2019-02-11T17:28:49.210Z,9.56
2019-02-11T17:31:27.761Z,9.53
2019-02-11T17:33:59.527Z,9.47
2019-02-11T17:36:29.115Z,9.57
2019-02-11T17:39:07.780Z,9.60
2019-02-11T17:41:46.374Z,9.64
2019-02-11T17:44:24.246Z,9.55
2019-02-11T17:46:55.687Z,9.50
2019-02-11T17:49:34.484Z,9.44
2019-02-11T17:52:21.271Z,9.31
2019-02-11T17:55:01.769Z,9.26
2019-02-11T17:57:35.447Z,9.12
2019-02-11T18:00:20.043Z,9.12
2019-02-11T18:03:05.345Z,9.24
2019-02-11T18:05:36.229Z,9.17
2019-02-11T18:08:25.084Z,9.05
2019-02-11T18:10:58.809Z,9.04
2019-02-11T18:13:33.003Z,8.97
2019-02-11T18:18:57.724Z,9.03
2019-02-11T18:21:36.103Z,8.93
2019-02-11T18:24:13.362Z,8.97
2019-02-11T18:26:57.295Z,8.93
2019-02-11T18:29:29.217Z,8.91
2019-02-11T18:39:40.020Z,8.79
2019-02-11T18:42:13.455Z,8.71
2019-02-11T18:44:54.020Z,8.74
2019-02-11T18:51:04.957Z,8.63
2019-02-11T18:56:35.894Z,8.58
2019-02-11T19:05:24.398Z,8.53
2019-02-11T19:11:57.103Z,8.48
2019-02-11T19:14:36.284Z,8.50
2019-02-11T19:17:25.291Z,8.49
2019-02-11T19:23:11.465Z,8.43
2019-02-11T19:25:53.220Z,8.34
2019-02-11T19:34:09.194Z,8.54
2019-02-11T19:36:45.308Z,8.62
2019-02-11T19:39:23.373Z,8.62
2019-02-11T19:41:53.305Z,8.58
2019-02-11T19:44:54.224Z,8.60
2019-02-11T19:47:50.613Z,8.48
2019-02-11T19:56:41.359Z,8.33
2019-02-11T19:59:09.659Z,8.35
2019-02-11T20:02:17.185Z,8.30
2019-02-11T20:14:02.328Z,7.93
2019-02-11T20:20:17.690Z,7.73
2019-02-11T20:26:07.336Z,7.78
2019-02-11T20:40:43.578Z,8.02
2019-02-11T21:01:47.367Z,7.95
2019-02-11T21:04:24.023Z,7.81
2019-02-11T21:07:42.020Z,7.73
2019-02-11T21:33:00.835Z,7.35
2019-02-11T21:55:45.194Z,7.39
2019-02-11T21:58:19.196Z,7.44
2019-02-11T22:01:10.439Z,7.37
2019-02-11T22:07:15.788Z,7.49
2019-02-11T22:10:11.378Z,7.39
2019-02-11T22:38:06.357Z,7.35
2019-02-11T22:40:36.811Z,7.36
2019-02-11T22:46:45.192Z,7.28
2019-02-11T22:49:34.190Z,7.21
2019-02-11T22:52:09.966Z,7.13
2019-02-11T22:58:00.535Z,7.14
2019-02-11T23:01:08.536Z,7.13
2019-02-11T23:06:27.389Z,7.12
2019-02-11T23:09:39.183Z,7.10
2019-02-11T23:12:18.250Z,7.01
2019-02-11T23:15:36.396Z,7.07
2019-02-11T23:21:20.358Z,6.88
2019-02-11T23:26:48.610Z,6.92
2019-02-11T23:29:49.402Z,6.92
2019-02-11T23:32:57.181Z,6.93
2019-02-11T23:41:25.843Z,7.07
2019-02-11T23:46:42.561Z,7.27
2019-02-11T23:50:05.670Z,7.26
